Time;durP1;ratioP1;P1;durP2;ratioP2;P2;SDS_P1;SDS_P2;PMS_P1;PMS_P2;Temp;Humidity;BMP_temperature;BMP_pressure;BME280_temperature;BME280_humidity;BME280_pressure;Samples;Min_cycle;Max_cycle;Signal;HPM_P1;HPM_P2
2023/06/04 00:02:11;;;;;;;4.32;4.03;;;;;;;;;;5125225;23;20077;-58
2023/06/04 00:04:32;;;;;;;5.22;4.93;;;;;;;;;;5125377;23;20239;-57
2023/06/04 00:06:52;;;;;;;4.85;4.75;;;;;;;;;;5125514;23;20363;-57
2023/06/04 00:09:12;;;;;;;8.43;4.53;;;;;;;;;;5125224;23;20361;-57
2023/06/04 00:11:35;;;;;;;10.77;4.53;;;;;;;;;;5125293;23;20027;-57
2023/06/04 00:13:55;;;;;;;11.90;4.33;;;;;;;;;;5125309;23;20076;-57
2023/06/04 00:16:15;;;;;;;47.95;5.60;;;;;;;;;;5125234;23;20351;-57
2023/06/04 00:18:36;;;;;;;7.03;3.58;;;;;;;;;;5125117;23;20375;-56
2023/06/04 00:20:56;;;;;;;22.67;3.95;;;;;;;;;;5125359;23;20040;-57
2023/06/04 00:23:17;;;;;;;19.42;4.43;;;;;;;;;;5125336;23;20343;-56
2023/06/04 00:25:37;;;;;;;4.07;3.55;;;;;;;;;;5125019;23;20075;-57
2023/06/04 00:27:58;;;;;;;3.95;3.72;;;;;;;;;;5125334;23;20089;-57
2023/06/04 00:30:18;;;;;;;61.08;5.60;;;;;;;;;;5120644;23;20032;-57
2023/06/04 00:32:39;;;;;;;10.40;4.32;;;;;;;;;;5126337;23;20059;-57
2023/06/04 00:35:00;;;;;;;56.63;5.57;;;;;;;;;;5126332;23;20028;-57
2023/06/04 00:37:21;;;;;;;16.52;3.50;;;;;;;;;;5126491;23;20024;-57
2023/06/04 00:39:41;;;;;;;3.15;2.95;;;;;;;;;;5126276;23;20036;-57
2023/06/04 00:42:01;;;;;;;3.08;2.97;;;;;;;;;;5110620;23;20032;-57
2023/06/04 00:44:25;;;;;;;9.75;2.53;;;;;;;;;;5125361;23;20043;-57
2023/06/04 00:46:47;;;;;;;15.00;2.90;;;;;;;;;;5126338;23;20031;-57
2023/06/04 00:49:07;;;;;;;24.17;3.33;;;;;;;;;;5126214;23;20035;-57
2023/06/04 00:51:30;;;;;;;5.38;2.95;;;;;;;;;;5126408;23;20097;-57
2023/06/04 00:53:50;;;;;;;2.70;2.67;;;;;;;;;;5126409;23;20023;-57
2023/06/04 00:56:11;;;;;;;39.53;3.70;;;;;;;;;;5126152;23;20023;-57
2023/06/04 00:58:32;;;;;;;18.08;3.78;;;;;;;;;;5126364;23;20210;-57
2023/06/04 01:00:53;;;;;;;47.60;4.53;;;;;;;;;;5126416;23;20024;-57
2023/06/04 01:03:19;;;;;;;24.20;4.03;;;;;;;;;;5126242;23;20052;-57
2023/06/04 01:05:52;;;;;;;15.13;2.95;;;;;;;;;;5126158;23;20024;-57
2023/06/04 01:08:15;;;;;;;27.00;3.75;;;;;;;;;;5126306;23;20088;-57
2023/06/04 01:10:35;;;;;;;;;;;;;;;;;;5126870;23;20035;-57
2023/06/04 01:12:55;;;;;;;2.33;2.33;;;;;;;;;;5126659;23;19936;-56
2023/06/04 01:15:16;;;;;;;17.42;3.28;;;;;;;;;;5126220;23;20059;-57
2023/06/04 01:17:46;;;;;;;9.75;3.20;;;;;;;;;;5126387;23;20024;-56
2023/06/04 01:20:45;;;;;;;3.35;3.17;;;;;;;;;;5126328;23;20062;-57
2023/06/04 01:23:08;;;;;;;31.63;3.83;;;;;;;;;;5056683;23;20037;-57
2023/06/04 01:25:39;;;;;;;84.47;6.47;;;;;;;;;;5054714;23;20066;-57
2023/06/04 01:28:01;;;;;;;26.40;4.20;;;;;;;;;;5075113;23;20061;-57
2023/06/04 01:30:30;;;;;;;53.55;4.85;;;;;;;;;;5075348;23;20049;-57
2023/06/04 01:32:50;;;;;;;93.68;5.22;;;;;;;;;;5075404;23;20416;-58
2023/06/04 01:35:12;;;;;;;121.22;6.53;;;;;;;;;;5075261;23;20081;-56
2023/06/04 01:37:32;;;;;;;137.32;7.25;;;;;;;;;;5075202;23;20056;-57
2023/06/04 01:39:52;;;;;;;84.85;6.85;;;;;;;;;;5075363;23;20095;-57
2023/06/04 01:42:12;;;;;;;52.22;5.40;;;;;;;;;;5074658;23;20258;-57
2023/06/04 01:44:33;;;;;;;11.00;3.45;;;;;;;;;;5075092;23;20053;-57
2023/06/04 01:46:53;;;;;;;13.98;3.42;;;;;;;;;;5075332;23;20383;-57
2023/06/04 01:49:13;;;;;;;8.63;3.35;;;;;;;;;;5075351;23;20061;-57
2023/06/04 01:51:33;;;;;;;84.07;5.28;;;;;;;;;;5075114;23;20053;-57
2023/06/04 01:53:53;;;;;;;14.02;3.63;;;;;;;;;;5103921;23;20331;-57
2023/06/04 01:56:14;;;;;;;47.03;4.25;;;;;;;;;;5126224;23;20037;-57
2023/06/04 01:58:35;;;;;;;40.65;4.53;;;;;;;;;;5126076;23;20331;-57
2023/06/04 02:00:59;;;;;;;2.63;2.63;;;;;;;;;;5126125;23;20353;-57
2023/06/04 02:03:20;;;;;;;29.33;4.63;;;;;;;;;;5126220;23;20126;-57
2023/06/04 02:05:40;;;;;;;31.92;4.10;;;;;;;;;;5104044;23;20068;-56
2023/06/04 02:08:01;;;;;;;323.20;14.60;;;;;;;;;;5125989;23;20036;-57
2023/06/04 02:10:22;;;;;;;10.82;2.88;;;;;;;;;;5126144;23;20259;-57
2023/06/04 02:12:56;;;;;;;19.08;3.30;;;;;;;;;;5126125;23;20420;-57
2023/06/04 02:15:17;;;;;;;45.28;3.67;;;;;;;;;;5126107;23;20036;-57
2023/06/04 02:17:39;;;;;;;19.20;3.50;;;;;;;;;;5125985;23;20317;-57
2023/06/04 02:20:01;;;;;;;18.13;3.53;;;;;;;;;;5126193;23;20230;-57
2023/06/04 02:22:22;;;;;;;16.90;3.15;;;;;;;;;;5126144;23;20040;-57
2023/06/04 02:24:42;;;;;;;24.33;3.50;;;;;;;;;;5125937;23;20247;-57
2023/06/04 02:27:02;;;;;;;5.38;3.30;;;;;;;;;;5126009;23;20044;-57
2023/06/04 02:29:23;;;;;;;15.45;3.03;;;;;;;;;;5118335;23;20035;-57
2023/06/04 02:31:43;;;;;;;12.75;2.97;;;;;;;;;;5125829;23;20027;-57
2023/06/04 02:34:04;;;;;;;3.58;3.13;;;;;;;;;;5125907;23;20033;-57
2023/06/04 02:36:24;;;;;;;14.23;2.92;;;;;;;;;;5125990;23;20035;-57
2023/06/04 02:38:45;;;;;;;13.98;2.80;;;;;;;;;;5125891;23;20050;-57
2023/06/04 02:41:05;;;;;;;33.97;4.10;;;;;;;;;;5125752;23;20035;-57
2023/06/04 02:43:26;;;;;;;26.40;3.10;;;;;;;;;;5126083;23;20073;-56
2023/06/04 02:45:46;;;;;;;8.50;2.47;;;;;;;;;;5122881;23;20028;-57
2023/06/04 02:48:06;;;;;;;7.32;3.08;;;;;;;;;;5125851;23;20024;-57
2023/06/04 02:50:26;;;;;;;11.73;3.33;;;;;;;;;;5125963;23;20028;-57
2023/06/04 02:52:46;;;;;;;26.83;3.25;;;;;;;;;;5125583;23;20024;-57
2023/06/04 02:55:08;;;;;;;8.57;2.97;;;;;;;;;;5125946;23;20059;-58
2023/06/04 02:57:30;;;;;;;16.58;3.20;;;;;;;;;;5125860;23;20035;-57
2023/06/04 02:59:51;;;;;;;39.65;3.97;;;;;;;;;;5126012;23;20103;-57
2023/06/04 03:02:14;;;;;;;7.88;3.08;;;;;;;;;;5125776;23;20028;-57
2023/06/04 03:04:35;;;;;;;18.95;3.65;;;;;;;;;;5125749;23;20028;-57
2023/06/04 03:06:57;;;;;;;3.92;2.25;;;;;;;;;;5125769;23;20056;-57
2023/06/04 03:09:18;;;;;;;14.50;2.77;;;;;;;;;;5110718;23;20088;-57
2023/06/04 03:11:38;;;;;;;25.10;3.38;;;;;;;;;;5125690;23;20267;-58
2023/06/04 03:13:59;;;;;;;17.92;3.00;;;;;;;;;;5125793;23;20116;-58
2023/06/04 03:16:20;;;;;;;10.35;2.97;;;;;;;;;;5113966;23;20267;-57
2023/06/04 03:18:41;;;;;;;12.82;3.10;;;;;;;;;;5125991;23;20052;-57
2023/06/04 03:21:01;;;;;;;22.88;3.22;;;;;;;;;;5125695;23;20362;-57
2023/06/04 03:23:22;;;;;;;9.00;3.03;;;;;;;;;;5125725;23;20082;-57
2023/06/04 03:25:42;;;;;;;18.80;2.78;;;;;;;;;;5125763;23;20024;-57
2023/06/04 03:28:02;;;;;;;5.47;2.70;;;;;;;;;;5125672;23;20027;-57
2023/06/04 03:30:22;;;;;;;7.07;2.33;;;;;;;;;;5125660;23;20235;-57
2023/06/04 03:32:43;;;;;;;19.75;3.03;;;;;;;;;;5125663;23;20300;-57
2023/06/04 03:35:04;;;;;;;10.48;2.28;;;;;;;;;;5125474;23;20032;-56
2023/06/04 03:37:26;;;;;;;8.05;2.50;;;;;;;;;;5125605;23;20071;-57
2023/06/04 03:39:47;;;;;;;7.80;2.72;;;;;;;;;;5125499;23;20060;-57
2023/06/04 03:42:07;;;;;;;2.38;2.38;;;;;;;;;;5125507;23;20024;-57
2023/06/04 03:44:28;;;;;;;2.97;2.45;;;;;;;;;;5125536;23;20075;-57
2023/06/04 03:46:49;;;;;;;7.72;3.33;;;;;;;;;;5125555;23;20089;-57
2023/06/04 03:49:10;;;;;;;38.30;3.38;;;;;;;;;;5125438;23;20024;-58
2023/06/04 03:51:30;;;;;;;30.58;2.80;;;;;;;;;;5125500;23;20040;-58
2023/06/04 03:53:51;;;;;;;3.78;2.38;;;;;;;;;;5125376;23;20056;-57
2023/06/04 03:56:11;;;;;;;2.25;2.17;;;;;;;;;;5125419;23;20059;-57
2023/06/04 03:58:33;;;;;;;2.40;2.40;;;;;;;;;;5125420;23;20036;-57
2023/06/04 04:00:53;;;;;;;5.32;2.35;;;;;;;;;;5125483;23;20055;-57
2023/06/04 04:03:14;;;;;;;7.85;2.60;;;;;;;;;;5125364;23;20036;-57
2023/06/04 04:05:35;;;;;;;10.13;2.53;;;;;;;;;;5126145;23;20032;-57
2023/06/04 04:07:55;;;;;;;10.13;2.33;;;;;;;;;;5126519;23;20370;-57
2023/06/04 04:10:18;;;;;;;21.17;2.33;;;;;;;;;;5126544;23;20079;-58
2023/06/04 04:12:38;;;;;;;20.23;2.42;;;;;;;;;;5126414;23;20295;-57
2023/06/04 04:14:59;;;;;;;5.88;2.35;;;;;;;;;;5090843;23;20037;-57
2023/06/04 04:17:20;;;;;;;2.97;2.70;;;;;;;;;;5126466;23;20068;-57
2023/06/04 04:19:40;;;;;;;2.40;2.40;;;;;;;;;;5126483;23;20083;-57
2023/06/04 04:22:00;;;;;;;45.35;4.22;;;;;;;;;;5126426;23;20024;-57
2023/06/04 04:24:25;;;;;;;3.80;2.67;;;;;;;;;;5126475;23;20109;-57
2023/06/04 04:26:46;;;;;;;18.85;2.72;;;;;;;;;;5126431;23;20044;-57
2023/06/04 04:29:08;;;;;;;22.65;2.95;;;;;;;;;;5126690;23;20040;-57
2023/06/04 04:31:28;;;;;;;16.52;2.80;;;;;;;;;;5122517;23;20028;-57
2023/06/04 04:33:51;;;;;;;23.00;2.88;;;;;;;;;;5126384;23;20052;-57
2023/06/04 04:36:13;;;;;;;9.93;2.80;;;;;;;;;;5126392;23;20043;-57
2023/06/04 04:38:34;;;;;;;14.97;3.30;;;;;;;;;;5103196;23;20024;-57
2023/06/04 04:40:55;;;;;;;1.92;1.92;;;;;;;;;;5103011;23;20053;-58
2023/06/04 04:43:15;;;;;;;28.77;3.58;;;;;;;;;;5126320;23;20040;-57
2023/06/04 04:45:36;;;;;;;15.63;2.45;;;;;;;;;;5126268;23;20028;-57
2023/06/04 04:47:56;;;;;;;11.57;2.80;;;;;;;;;;5126425;23;20023;-57
2023/06/04 04:50:16;;;;;;;49.28;4.75;;;;;;;;;;5126378;23;20035;-57
2023/06/04 04:52:36;;;;;;;34.50;3.75;;;;;;;;;;5126281;23;20194;-57
2023/06/04 04:54:57;;;;;;;40.60;3.28;;;;;;;;;;5126304;23;20044;-57
2023/06/04 04:57:19;;;;;;;31.70;2.75;;;;;;;;;;5126400;23;20023;-57
2023/06/04 04:59:40;;;;;;;10.48;2.75;;;;;;;;;;5126279;23;20028;-57
2023/06/04 05:02:00;;;;;;;19.08;3.08;;;;;;;;;;5126250;23;20211;-57
2023/06/04 05:04:20;;;;;;;22.92;2.78;;;;;;;;;;5126342;23;20031;-57
2023/06/04 05:06:40;;;;;;;80.97;5.65;;;;;;;;;;5126290;23;20036;-57
2023/06/04 05:09:00;;;;;;;75.95;5.50;;;;;;;;;;5126262;23;20039;-57
2023/06/04 05:11:21;;;;;;;238.98;11.75;;;;;;;;;;5126328;23;20027;-57
2023/06/04 05:13:44;;;;;;;13.63;2.90;;;;;;;;;;5134533;23;20108;-57
2023/06/04 05:16:06;;;;;;;103.32;6.43;;;;;;;;;;5126015;23;20035;-57
2023/06/04 05:18:29;;;;;;;47.07;4.10;;;;;;;;;;5126282;23;20081;-57
2023/06/04 05:20:49;;;;;;;123.35;6.75;;;;;;;;;;5126392;23;20275;-57
2023/06/04 05:23:12;;;;;;;133.13;7.10;;;;;;;;;;5126140;23;20031;-57
2023/06/04 05:25:32;;;;;;;11.52;2.63;;;;;;;;;;5126169;23;20081;-57
2023/06/04 05:27:54;;;;;;;133.23;7.90;;;;;;;;;;5126284;23;20071;-57
2023/06/04 05:30:16;;;;;;;152.50;8.27;;;;;;;;;;5126155;23;20052;-57
2023/06/04 05:32:40;;;;;;;131.05;7.70;;;;;;;;;;5126067;23;20044;-56
2023/06/04 05:35:04;;;;;;;55.13;5.18;;;;;;;;;;5090692;23;20056;-57
2023/06/04 05:37:26;;;;;;;16.48;3.10;;;;;;;;;;5126315;23;20024;-57
2023/06/04 05:39:47;;;;;;;66.63;5.15;;;;;;;;;;5126057;23;20085;-57
2023/06/04 05:42:07;;;;;;;185.40;10.82;;;;;;;;;;5126018;23;20036;-56
2023/06/04 05:44:27;;;;;;;179.13;10.48;;;;;;;;;;5126169;23;20028;-57
2023/06/04 05:46:47;;;;;;;22.75;3.80;;;;;;;;;;5110373;23;20259;-58
2023/06/04 05:49:07;;;;;;;32.53;3.88;;;;;;;;;;5125947;23;20028;-57
2023/06/04 05:51:28;;;;;;;3.50;3.28;;;;;;;;;;5126134;23;20071;-57
2023/06/04 05:53:49;;;;;;;7.18;2.70;;;;;;;;;;5126074;23;20024;-57
2023/06/04 05:56:10;;;;;;;21.63;3.60;;;;;;;;;;5125938;23;20243;-57
2023/06/04 05:58:30;;;;;;;11.05;2.97;;;;;;;;;;5126102;23;20032;-57
2023/06/04 06:00:51;;;;;;;12.65;3.83;;;;;;;;;;5126147;23;20043;-57
2023/06/04 06:03:11;;;;;;;5.35;2.92;;;;;;;;;;5118263;23;20023;-57
2023/06/04 06:05:34;;;;;;;81.45;6.15;;;;;;;;;;5126064;23;20045;-57
2023/06/04 06:07:55;;;;;;;35.45;3.97;;;;;;;;;;5126196;23;20283;-57
2023/06/04 06:10:16;;;;;;;4.00;2.95;;;;;;;;;;5125986;23;20023;-57
2023/06/04 06:12:36;;;;;;;2.25;2.15;;;;;;;;;;5125913;23;20248;-56
2023/06/04 06:14:57;;;;;;;2.45;2.35;;;;;;;;;;5126114;23;20024;-57
2023/06/04 06:17:17;;;;;;;2.40;2.40;;;;;;;;;;5126063;23;20044;-57
2023/06/04 06:19:37;;;;;;;3.10;3.00;;;;;;;;;;5125904;23;20085;-57
2023/06/04 06:21:59;;;;;;;3.10;2.70;;;;;;;;;;5126132;23;20027;-57
2023/06/04 06:24:19;;;;;;;2.80;2.80;;;;;;;;;;5102481;23;20028;-57
2023/06/04 06:26:39;;;;;;;2.60;2.50;;;;;;;;;;5125828;23;20039;-57
2023/06/04 06:29:00;;;;;;;3.47;3.33;;;;;;;;;;5125574;23;20093;-57
2023/06/04 06:31:20;;;;;;;2.58;2.40;;;;;;;;;;5126120;23;20067;-57
2023/06/04 06:33:41;;;;;;;2.20;2.20;;;;;;;;;;5125857;23;20064;-57
2023/06/04 06:36:01;;;;;;;2.33;2.33;;;;;;;;;;5125912;23;20323;-57
2023/06/04 06:38:21;;;;;;;2.20;2.20;;;;;;;;;;5126053;23;20490;-57
2023/06/04 06:40:42;;;;;;;1.95;1.95;;;;;;;;;;5125794;23;20063;-57
2023/06/04 06:43:02;;;;;;;2.80;2.60;;;;;;;;;;5125796;23;20071;-57
2023/06/04 06:45:22;;;;;;;2.20;2.20;;;;;;;;;;5126016;23;20091;-57
2023/06/04 06:47:42;;;;;;;2.53;2.53;;;;;;;;;;5125891;23;20121;-57
2023/06/04 06:50:02;;;;;;;2.35;2.30;;;;;;;;;;5125868;23;20044;-56
2023/06/04 06:52:22;;;;;;;2.35;2.35;;;;;;;;;;5134320;23;20333;-57
2023/06/04 06:54:43;;;;;;;1.65;1.65;;;;;;;;;;5125844;23;20397;-57
2023/06/04 06:57:08;;;;;;;2.10;2.10;;;;;;;;;;5125720;23;20226;-57
2023/06/04 06:59:29;;;;;;;2.40;2.20;;;;;;;;;;5125797;23;20056;-57
2023/06/04 07:01:49;;;;;;;2.60;2.35;;;;;;;;;;5125984;23;20048;-57
2023/06/04 07:04:09;;;;;;;1.88;1.77;;;;;;;;;;5125693;23;20032;-57
2023/06/04 07:06:30;;;;;;;1.95;1.95;;;;;;;;;;5125760;23;20028;-57
2023/06/04 07:08:50;;;;;;;1.80;1.80;;;;;;;;;;5125910;23;20346;-57
2023/06/04 07:11:13;;;;;;;3.53;2.22;;;;;;;;;;5125769;23;20055;-57
2023/06/04 07:13:34;;;;;;;1.58;1.58;;;;;;;;;;5125643;23;20024;-57
2023/06/04 07:15:55;;;;;;;1.90;1.90;;;;;;;;;;5125886;23;20028;-57
2023/06/04 07:18:15;;;;;;;2.35;1.77;;;;;;;;;;5125756;23;20047;-57
2023/06/04 07:20:35;;;;;;;2.13;2.05;;;;;;;;;;5103443;23;20216;-57
2023/06/04 07:22:55;;;;;;;1.80;1.50;;;;;;;;;;5125831;23;20024;-57
2023/06/04 07:25:16;;;;;;;2.20;2.10;;;;;;;;;;5125740;23;20051;-57
2023/06/04 07:27:37;;;;;;;1.63;1.60;;;;;;;;;;5104320;23;20033;-57
2023/06/04 07:29:58;;;;;;;2.13;2.03;;;;;;;;;;5125633;23;20032;-57
2023/06/04 07:32:20;;;;;;;1.70;1.70;;;;;;;;;;5125738;23;20239;-57
2023/06/04 07:34:41;;;;;;;1.85;1.45;;;;;;;;;;5125471;23;20091;-58
2023/06/04 07:37:01;;;;;;;2.45;1.83;;;;;;;;;;5125537;23;20033;-57
2023/06/04 07:39:21;;;;;;;1.80;1.70;;;;;;;;;;5125559;23;20028;-57
2023/06/04 07:41:45;;;;;;;1.60;1.60;;;;;;;;;;5126703;23;20024;-57
2023/06/04 07:44:05;;;;;;;2.75;1.50;;;;;;;;;;5126451;23;20267;-57
2023/06/04 07:46:25;;;;;;;1.58;1.58;;;;;;;;;;5126759;23;20088;-57
2023/06/04 07:48:46;;;;;;;1.55;1.55;;;;;;;;;;5126632;23;20362;-57
2023/06/04 07:51:06;;;;;;;1.77;1.50;;;;;;;;;;5126465;23;20079;-57
2023/06/04 07:53:27;;;;;;;2.20;1.88;;;;;;;;;;5126633;23;20227;-56
2023/06/04 07:55:47;;;;;;;1.98;1.70;;;;;;;;;;5126680;23;20082;-57
2023/06/04 07:58:08;;;;;;;1.45;1.45;;;;;;;;;;5126436;23;20112;-57
2023/06/04 08:00:28;;;;;;;1.30;1.30;;;;;;;;;;5126521;23;20064;-57
2023/06/04 08:02:50;;;;;;;1.55;1.55;;;;;;;;;;5126621;23;20055;-57
2023/06/04 08:05:13;;;;;;;2.30;1.70;;;;;;;;;;5126451;23;20063;-57
2023/06/04 08:07:33;;;;;;;;;;;;;;;;;;5126899;23;20089;-57
2023/06/04 08:09:55;;;;;;;1.30;1.27;;;;;;;;;;5126719;23;19950;-57
2023/06/04 08:12:16;;;;;;;1.30;1.30;;;;;;;;;;5126584;23;20044;-57
2023/06/04 08:14:37;;;;;;;1.50;1.50;;;;;;;;;;5102826;23;20032;-57
2023/06/04 08:16:57;;;;;;;1.40;1.40;;;;;;;;;;5104573;23;20036;-57
2023/06/04 08:19:17;;;;;;;1.27;1.27;;;;;;;;;;5126540;23;20024;-57
2023/06/04 08:21:38;;;;;;;1.30;1.30;;;;;;;;;;5126271;23;20212;-57
2023/06/04 08:23:59;;;;;;;1.35;1.13;;;;;;;;;;5126425;23;20068;-58
2023/06/04 08:26:20;;;;;;;2.33;1.10;;;;;;;;;;5126538;23;20076;-57
2023/06/04 08:28:40;;;;;;;1.33;1.33;;;;;;;;;;5134575;23;20327;-58
2023/06/04 08:31:01;;;;;;;1.90;1.80;;;;;;;;;;5118036;23;20363;-59
2023/06/04 08:33:22;;;;;;;1.27;1.27;;;;;;;;;;5126548;23;20251;-56
2023/06/04 08:35:42;;;;;;;1.20;1.20;;;;;;;;;;5126593;23;20391;-58
2023/06/04 08:38:02;;;;;;;1.00;1.00;;;;;;;;;;5126247;23;20032;-57
2023/06/04 08:40:22;;;;;;;2.45;1.30;;;;;;;;;;5126479;23;20048;-57
2023/06/04 08:42:44;;;;;;;1.77;1.30;;;;;;;;;;5126412;23;20101;-57
2023/06/04 08:45:07;;;;;;;1.52;1.20;;;;;;;;;;5126247;23;20120;-58
2023/06/04 08:47:29;;;;;;;1.67;1.67;;;;;;;;;;5126564;23;20247;-57
2023/06/04 08:49:53;;;;;;;5.05;1.30;;;;;;;;;;5126557;23;20232;-58
2023/06/04 08:52:14;;;;;;;1.63;1.52;;;;;;;;;;5126122;23;20028;-57
2023/06/04 08:54:34;;;;;;;1.33;1.25;;;;;;;;;;5126209;23;20291;-57
2023/06/04 08:56:56;;;;;;;1.30;1.30;;;;;;;;;;5126519;23;20036;-57
2023/06/04 08:59:16;;;;;;;1.30;1.30;;;;;;;;;;5126335;23;20044;-57
2023/06/04 09:01:36;;;;;;;4.00;1.30;;;;;;;;;;5126226;23;20286;-57
2023/06/04 09:03:57;;;;;;;1.20;1.20;;;;;;;;;;5126587;23;20055;-58
2023/06/04 09:06:18;;;;;;;1.10;1.10;;;;;;;;;;5126366;23;20032;-57
2023/06/04 09:08:41;;;;;;;1.30;1.30;;;;;;;;;;5126151;23;20040;-57
2023/06/04 09:11:04;;;;;;;2.67;1.50;;;;;;;;;;5126299;23;20032;-57
2023/06/04 09:13:28;;;;;;;1.70;1.60;;;;;;;;;;5126341;23;20028;-57
2023/06/04 09:15:59;;;;;;;1.35;1.35;;;;;;;;;;5126246;23;20335;-57
2023/06/04 09:18:20;;;;;;;1.80;1.75;;;;;;;;;;5126221;23;20369;-57
2023/06/04 09:20:40;;;;;;;2.00;1.20;;;;;;;;;;5126334;23;20024;-57
2023/06/04 09:23:01;;;;;;;2.55;1.20;;;;;;;;;;5126394;23;20027;-57
2023/06/04 09:25:25;;;;;;;1.55;1.00;;;;;;;;;;5126127;23;20036;-57
2023/06/04 09:27:45;;;;;;;1.10;1.10;;;;;;;;;;5126213;23;20032;-56
2023/06/04 09:30:08;;;;;;;1.05;1.05;;;;;;;;;;5126321;23;20036;-57
2023/06/04 09:32:28;;;;;;;;;;;;;;;;;;5126683;23;20331;-57
2023/06/04 09:34:49;;;;;;;4.35;1.38;;;;;;;;;;5126043;23;20139;-57
2023/06/04 09:37:14;;;;;;;1.10;1.10;;;;;;;;;;5126359;23;20056;-57
2023/06/04 09:39:35;;;;;;;0.82;0.82;;;;;;;;;;5126193;23;20071;-57
2023/06/04 09:42:02;;;;;;;1.08;1.08;;;;;;;;;;5126087;23;20032;-56
2023/06/04 09:44:22;;;;;;;4.35;1.40;;;;;;;;;;5126260;23;20053;-56
2023/06/04 09:46:42;;;;;;;2.28;1.00;;;;;;;;;;5126353;23;20035;-57
2023/06/04 09:49:06;;;;;;;1.70;1.00;;;;;;;;;;5126170;23;20051;-57
2023/06/04 09:51:26;;;;;;;1.00;1.00;;;;;;;;;;5125946;23;20093;-57
2023/06/04 09:53:54;;;;;;;1.00;1.00;;;;;;;;;;5126496;23;20040;-57
2023/06/04 09:56:15;;;;;;;0.90;0.90;;;;;;;;;;5126239;23;20374;-57
2023/06/04 09:58:35;;;;;;;0.95;0.93;;;;;;;;;;5125977;23;20044;-57
2023/06/04 10:00:57;;;;;;;0.90;0.90;;;;;;;;;;5126124;23;20028;-57
2023/06/04 10:03:23;;;;;;;1.00;1.00;;;;;;;;;;5125598;23;20041;-57
2023/06/04 10:05:44;;;;;;;1.65;1.00;;;;;;;;;;5126077;23;20023;-57
2023/06/04 10:08:05;;;;;;;2.55;1.10;;;;;;;;;;5125925;23;20028;-57
2023/06/04 10:10:26;;;;;;;1.00;1.00;;;;;;;;;;5126180;23;20040;-57
2023/06/04 10:12:50;;;;;;;1.02;1.02;;;;;;;;;;5126127;23;20436;-57
2023/06/04 10:15:15;;;;;;;1.15;1.15;;;;;;;;;;5125854;23;20035;-57
2023/06/04 10:17:35;;;;;;;1.05;1.05;;;;;;;;;;5126123;23;20032;-57
2023/06/04 10:19:57;;;;;;;1.10;1.10;;;;;;;;;;5126190;23;20036;-57
2023/06/04 10:22:17;;;;;;;1.13;1.13;;;;;;;;;;5126005;23;20031;-57
2023/06/04 10:24:38;;;;;;;1.20;1.20;;;;;;;;;;5125897;23;20024;-57
2023/06/04 10:26:59;;;;;;;1.30;1.20;;;;;;;;;;5126095;23;20342;-58
2023/06/04 10:29:20;;;;;;;1.30;1.20;;;;;;;;;;5126054;23;20031;-57
2023/06/04 10:31:41;;;;;;;1.48;1.00;;;;;;;;;;5125809;23;20136;-57
2023/06/04 10:34:01;;;;;;;1.00;1.00;;;;;;;;;;5125944;23;20031;-57
2023/06/04 10:36:22;;;;;;;1.20;1.10;;;;;;;;;;5126080;23;20027;-57
2023/06/04 10:38:49;;;;;;;1.02;1.00;;;;;;;;;;5125813;23;20241;-54
2023/06/04 10:41:15;;;;;;;1.02;1.02;;;;;;;;;;5125888;23;20048;-54
2023/06/04 10:43:36;;;;;;;1.40;1.00;;;;;;;;;;5126087;23;20035;-54
2023/06/04 10:45:56;;;;;;;1.00;1.00;;;;;;;;;;5125928;23;20079;-54
2023/06/04 10:48:17;;;;;;;2.33;1.10;;;;;;;;;;5125765;23;20089;-55
2023/06/04 10:50:53;;;;;;;1.05;0.90;;;;;;;;;;5125988;23;20024;-55
2023/06/04 10:53:14;;;;;;;1.55;1.45;;;;;;;;;;5126053;23;20056;-54
2023/06/04 10:55:43;;;;;;;0.90;0.90;;;;;;;;;;5115547;23;20411;-54
2023/06/04 10:58:04;;;;;;;0.93;0.93;;;;;;;;;;5125693;23;20068;-54
2023/06/04 11:00:41;;;;;;;0.80;0.80;;;;;;;;;;5125950;23;20071;-54
2023/06/04 11:03:02;;;;;;;1.52;0.88;;;;;;;;;;5125999;23;20047;-54
2023/06/04 11:05:23;;;;;;;0.90;0.90;;;;;;;;;;5125987;23;20024;-55
2023/06/04 11:07:44;;;;;;;0.90;0.90;;;;;;;;;;5125707;23;20067;-54
2023/06/04 11:10:05;;;;;;;0.70;0.70;;;;;;;;;;5125896;23;20032;-55
2023/06/04 11:12:26;;;;;;;2.30;0.98;;;;;;;;;;5125887;23;20248;-55
2023/06/04 11:14:56;;;;;;;1.70;0.90;;;;;;;;;;5125688;23;20032;-55
2023/06/04 11:17:16;;;;;;;0.90;0.90;;;;;;;;;;5125700;23;20423;-55
2023/06/04 11:19:37;;;;;;;1.05;0.90;;;;;;;;;;5125861;23;20203;-55
2023/06/04 11:21:57;;;;;;;0.80;0.80;;;;;;;;;;5125828;23;20127;-55
2023/06/04 11:24:17;;;;;;;1.00;1.00;;;;;;;;;;5125575;23;20111;-55
2023/06/04 11:26:38;;;;;;;1.00;0.93;;;;;;;;;;5125716;23;20023;-55
2023/06/04 11:29:07;;;;;;;0.90;0.90;;;;;;;;;;5125766;23;20039;-55
2023/06/04 11:31:28;;;;;;;1.27;0.90;;;;;;;;;;5125609;23;20024;-55
2023/06/04 11:33:48;;;;;;;1.77;0.90;;;;;;;;;;5125480;23;20027;-55
2023/06/04 11:36:09;;;;;;;0.80;0.80;;;;;;;;;;5125763;23;20066;-54
2023/06/04 11:38:29;;;;;;;2.50;1.27;;;;;;;;;;5125612;23;20043;-54
2023/06/04 11:41:04;;;;;;;0.82;0.82;;;;;;;;;;5125415;23;20379;-55
2023/06/04 11:43:25;;;;;;;0.80;0.80;;;;;;;;;;5125573;23;20024;-54
2023/06/04 11:45:46;;;;;;;1.83;0.85;;;;;;;;;;5125643;23;20292;-54
2023/06/04 11:48:06;;;;;;;1.20;1.15;;;;;;;;;;5125456;23;20060;-55
2023/06/04 11:50:30;;;;;;;0.95;0.93;;;;;;;;;;5125428;23;20032;-55
2023/06/04 11:52:53;;;;;;;1.55;1.05;;;;;;;;;;5125577;23;20028;-55
2023/06/04 11:55:14;;;;;;;3.30;0.90;;;;;;;;;;5125405;23;20024;-55
2023/06/04 11:57:34;;;;;;;1.02;0.98;;;;;;;;;;5125329;23;20052;-54
2023/06/04 11:59:55;;;;;;;0.98;0.98;;;;;;;;;;5125444;23;20128;-55
2023/06/04 12:02:15;;;;;;;1.30;1.00;;;;;;;;;;5125424;23;20036;-55
2023/06/04 12:04:35;;;;;;;0.90;0.90;;;;;;;;;;5125321;23;20024;-54
2023/06/04 12:06:57;;;;;;;1.00;1.00;;;;;;;;;;5125337;23;20035;-54
2023/06/04 12:09:21;;;;;;;1.33;0.90;;;;;;;;;;5110857;23;20067;-55
2023/06/04 12:11:42;;;;;;;1.40;1.40;;;;;;;;;;5125359;23;20243;-55
2023/06/04 12:14:07;;;;;;;0.80;0.80;;;;;;;;;;5125260;23;20032;-55
2023/06/04 12:16:28;;;;;;;1.02;1.02;;;;;;;;;;5125399;23;20059;-55
2023/06/04 12:18:50;;;;;;;1.50;1.08;;;;;;;;;;5125336;23;20044;-54
2023/06/04 12:21:26;;;;;;;1.80;1.25;;;;;;;;;;5125306;23;20028;-54
2023/06/04 12:23:47;;;;;;;1.15;1.05;;;;;;;;;;5125158;23;20067;-55
2023/06/04 12:26:07;;;;;;;0.95;0.95;;;;;;;;;;5133906;23;20028;-54
2023/06/04 12:28:27;;;;;;;1.30;0.88;;;;;;;;;;5126514;23;20055;-55
2023/06/04 12:30:48;;;;;;;1.10;0.90;;;;;;;;;;5126410;23;20028;-55
2023/06/04 12:33:08;;;;;;;1.00;1.00;;;;;;;;;;5126553;23;20024;-55
2023/06/04 12:35:28;;;;;;;1.00;0.90;;;;;;;;;;5126436;23;20068;-54
2023/06/04 12:37:48;;;;;;;1.58;0.98;;;;;;;;;;5126334;23;20059;-55
2023/06/04 12:40:09;;;;;;;1.00;1.00;;;;;;;;;;5126274;23;20056;-55
2023/06/04 12:42:30;;;;;;;1.00;1.00;;;;;;;;;;5126437;23;20036;-55
2023/06/04 12:44:50;;;;;;;1.00;1.00;;;;;;;;;;5126303;23;20044;-55
2023/06/04 12:47:11;;;;;;;0.90;0.90;;;;;;;;;;5126259;23;20076;-54
2023/06/04 12:49:31;;;;;;;0.82;0.82;;;;;;;;;;5126509;23;20056;-54
2023/06/04 12:51:52;;;;;;;0.88;0.88;;;;;;;;;;5126416;23;20054;-55
2023/06/04 12:54:12;;;;;;;1.00;1.00;;;;;;;;;;5126158;23;20035;-54
2023/06/04 12:56:32;;;;;;;0.90;0.90;;;;;;;;;;5126333;23;20032;-54
2023/06/04 12:58:56;;;;;;;1.13;1.10;;;;;;;;;;5126343;23;20039;-55
2023/06/04 13:01:16;;;;;;;0.90;0.90;;;;;;;;;;5126296;23;20032;-54
2023/06/04 13:03:42;;;;;;;0.90;0.90;;;;;;;;;;5126309;23;20036;-55
2023/06/04 13:06:02;;;;;;;0.90;0.90;;;;;;;;;;5126332;23;20068;-55
2023/06/04 13:08:23;;;;;;;3.00;1.00;;;;;;;;;;5126258;23;20036;-54
2023/06/04 13:10:43;;;;;;;1.00;1.00;;;;;;;;;;5117238;23;20338;-55
2023/06/04 13:13:03;;;;;;;1.20;1.10;;;;;;;;;;5126323;23;20031;-55
2023/06/04 13:15:23;;;;;;;1.70;0.93;;;;;;;;;;5126204;23;20355;-54
2023/06/04 13:17:44;;;;;;;1.00;1.00;;;;;;;;;;5126175;23;20358;-55
2023/06/04 13:20:05;;;;;;;1.10;1.00;;;;;;;;;;5126329;23;20093;-54
2023/06/04 13:22:25;;;;;;;1.20;1.10;;;;;;;;;;5122772;23;20031;-54
2023/06/04 13:24:45;;;;;;;1.48;1.20;;;;;;;;;;5126192;23;20055;-54
2023/06/04 13:27:06;;;;;;;1.20;1.20;;;;;;;;;;5126278;23;20358;-54
2023/06/04 13:29:26;;;;;;;0.95;0.95;;;;;;;;;;5126371;23;20047;-54
2023/06/04 13:31:46;;;;;;;1.20;0.85;;;;;;;;;;5126315;23;20027;-54
2023/06/04 13:34:07;;;;;;;1.65;0.80;;;;;;;;;;5126013;23;20208;-55
2023/06/04 13:36:46;;;;;;;0.70;0.70;;;;;;;;;;5126118;23;20097;-55
2023/06/04 13:39:07;;;;;;;0.80;0.80;;;;;;;;;;5126012;23;20024;-55
2023/06/04 13:41:27;;;;;;;2.35;1.00;;;;;;;;;;5126186;23;20036;-54
2023/06/04 13:43:47;;;;;;;1.48;0.70;;;;;;;;;;5126080;23;20023;-54
2023/06/04 13:46:08;;;;;;;0.80;0.80;;;;;;;;;;5126197;23;20339;-55
2023/06/04 13:48:28;;;;;;;1.13;0.88;;;;;;;;;;5126140;23;20342;-54
2023/06/04 13:50:48;;;;;;;0.90;0.90;;;;;;;;;;5126080;23;20086;-55
2023/06/04 13:53:09;;;;;;;2.97;0.93;;;;;;;;;;5126129;23;20063;-54
2023/06/04 13:55:29;;;;;;;1.00;1.00;;;;;;;;;;5126039;23;20239;-55
2023/06/04 13:57:50;;;;;;;1.13;1.10;;;;;;;;;;5126030;23;20031;-55
2023/06/04 14:00:13;;;;;;;1.70;1.60;;;;;;;;;;5126514;23;20077;-58
2023/06/04 14:02:33;;;;;;;2.05;1.10;;;;;;;;;;5126166;23;20032;-57
2023/06/04 14:04:54;;;;;;;1.10;1.10;;;;;;;;;;5126081;23;20047;-57